Time;durP1;ratioP1;P1;durP2;ratioP2;P2;SDS_P1;SDS_P2;PMS_P1;PMS_P2;Temp;Humidity;BMP_temperature;BMP_pressure;BME280_temperature;BME280_humidity;BME280_pressure;Samples;Min_cycle;Max_cycle;Signal;HPM_P1;HPM_P2
2023/08/22 00:00:23;;;;;;;9.57;3.25;;;;;;;17.92;57.26;96141.25;6278685;28;20051;-70
2023/08/22 00:03:27;;;;;;;8.68;2.80;;;;;;;17.85;57.01;96137.56;6297492;28;20055;-70
2023/08/22 00:06:28;;;;;;;11.40;3.28;;;;;;;17.73;57.12;96122.88;6297121;28;20046;-70
2023/08/22 00:09:32;;;;;;;8.57;3.10;;;;;;;17.51;57.67;96130.44;6296982;28;20036;-70
2023/08/22 00:12:39;;;;;;;14.70;3.33;;;;;;;17.32;58.35;96133.34;6296873;28;20044;-70
2023/08/22 00:15:46;;;;;;;8.15;2.83;;;;;;;17.16;58.44;96130.66;6296929;28;20039;-70
2023/08/22 00:18:50;;;;;;;9.32;2.33;;;;;;;16.95;58.52;96123.88;6296370;28;20047;-70
2023/08/22 00:21:54;;;;;;;5.25;2.70;;;;;;;16.86;58.74;96131.97;6297033;28;20048;-70
2023/08/22 00:25:02;;;;;;;7.90;2.30;;;;;;;16.83;58.83;96141.06;6296811;28;20566;-69
2023/08/22 00:28:07;;;;;;;6.18;2.55;;;;;;;16.66;59.12;96128.63;6278467;28;20050;-70
2023/08/22 00:31:11;;;;;;;10.27;2.75;;;;;;;16.53;59.59;96121.94;6296046;28;20045;-69
2023/08/22 00:34:14;;;;;;;8.77;2.50;;;;;;;16.40;59.76;96132.09;6278477;28;20048;-70
2023/08/22 00:37:20;;;;;;;;;;;;;;;16.29;59.55;96129.69;6296399;28;20041;-69
2023/08/22 00:40:21;;;;;;;6.03;1.80;;;;;;;16.26;59.90;96128.16;6278103;28;19927;-70
2023/08/22 00:43:27;;;;;;;5.57;2.17;;;;;;;16.21;59.96;96124.31;6295722;28;20131;-70
2023/08/22 00:46:34;;;;;;;6.22;2.17;;;;;;;16.10;60.00;96118.22;6295789;28;20043;-69
2023/08/22 00:49:37;;;;;;;5.18;2.00;;;;;;;16.13;60.19;96131.19;6269589;28;20056;-70
2023/08/22 00:52:43;;;;;;;3.60;1.88;;;;;;;16.08;60.32;96130.84;6271158;28;20127;-70
2023/08/22 00:55:49;;;;;;;4.10;1.85;;;;;;;16.03;60.27;96130.44;6270474;28;20045;-70
2023/08/22 00:58:59;;;;;;;4.25;1.50;;;;;;;16.03;60.04;96125.13;6269701;28;20056;-70
2023/08/22 01:02:07;;;;;;;5.53;1.70;;;;;;;16.06;60.16;96121.34;6271301;28;20074;-70
2023/08/22 01:05:12;;;;;;;2.10;1.40;;;;;;;16.12;60.10;96118.09;6270184;28;20547;-70
2023/08/22 01:08:19;;;;;;;3.95;1.90;;;;;;;16.07;60.11;96107.91;6270262;28;20053;-70
2023/08/22 01:11:31;;;;;;;7.38;2.03;;;;;;;16.14;59.79;96095.72;6269399;28;20111;-70
2023/08/22 01:14:38;;;;;;;;;;;;;;;16.23;59.18;96107.25;6270073;28;20067;-69
2023/08/22 01:17:48;;;;;;;5.85;2.63;;;;;;;16.30;59.39;96113.59;6270676;28;19920;-70
2023/08/22 01:20:52;;;;;;;2.70;1.60;;;;;;;16.52;59.04;96112.28;6269401;28;20523;-69
2023/08/22 01:23:55;;;;;;;;;;;;;;;16.55;58.61;96114.59;6271249;28;20041;-70
2023/08/22 01:27:00;;;;;;;10.48;1.65;;;;;;;16.75;58.57;96117.91;6269874;28;19942;-70
2023/08/22 01:30:12;;;;;;;3.03;1.48;;;;;;;16.96;58.12;96114.91;6270351;28;20419;-71
2023/08/22 01:33:31;;;;;;;4.05;1.67;;;;;;;17.15;57.61;96113.00;6270436;28;20459;-70
2023/08/22 01:36:42;;;;;;;5.35;1.88;;;;;;;17.28;57.44;96116.06;6270217;28;20419;-71
2023/08/22 01:39:47;;;;;;;6.80;1.90;;;;;;;17.41;57.35;96097.84;6270041;28;20060;-71
2023/08/22 01:42:50;;;;;;;4.32;1.98;;;;;;;17.54;57.02;96092.06;6269808;28;20049;-71
2023/08/22 01:45:51;;;;;;;;;;;;;;;17.61;56.40;96094.94;6270308;28;20407;-70
2023/08/22 01:49:01;;;;;;;6.88;2.10;;;;;;;17.69;56.30;96097.59;6268483;28;19921;-71
2023/08/22 01:52:02;;;;;;;3.92;2.03;;;;;;;17.80;56.00;96105.28;6267979;28;20068;-70
2023/08/22 01:55:06;;;;;;;5.03;1.80;;;;;;;17.88;55.84;96089.34;6268905;28;20049;-70
2023/08/22 01:58:11;;;;;;;3.80;1.80;;;;;;;17.97;55.72;96092.00;6269533;28;20040;-70
2023/08/22 02:01:15;;;;;;;3.33;2.08;;;;;;;17.92;55.81;96096.00;6269368;28;20044;-69
2023/08/22 02:04:17;;;;;;;5.15;1.65;;;;;;;17.75;56.30;96094.28;6269278;28;20150;-69
2023/08/22 02:07:21;;;;;;;4.28;1.63;;;;;;;17.55;56.79;96100.88;6269081;28;20503;-69
2023/08/22 02:10:26;;;;;;;5.47;2.72;;;;;;;17.47;57.30;96115.81;6269277;28;20083;-70
2023/08/22 02:13:32;;;;;;;4.65;1.95;;;;;;;17.38;57.32;96114.13;6268953;28;20049;-70
2023/08/22 02:16:36;;;;;;;3.70;2.28;;;;;;;17.47;57.00;96113.16;6269244;28;20049;-69
2023/08/22 02:19:40;;;;;;;4.85;1.65;;;;;;;17.76;56.24;96111.09;6269011;28;20040;-70
2023/08/22 02:22:43;;;;;;;5.10;1.58;;;;;;;18.10;55.24;96113.66;6269027;28;20040;-70
2023/08/22 02:25:46;;;;;;;5.30;1.88;;;;;;;18.28;54.88;96117.00;6269116;28;20174;-70
2023/08/22 02:28:47;;;;;;;6.68;3.30;;;;;;;18.34;54.15;96111.03;6269143;28;20033;-70
2023/08/22 02:31:51;;;;;;;9.68;3.20;;;;;;;18.55;53.86;96117.69;6269140;28;20484;-70
2023/08/22 02:34:56;;;;;;;5.07;2.50;;;;;;;18.67;53.52;96121.66;6268713;28;20051;-70
2023/08/22 02:38:00;;;;;;;5.72;2.13;;;;;;;18.83;53.29;96120.84;6268822;28;20075;-69
2023/08/22 02:41:03;;;;;;;6.85;3.00;;;;;;;18.96;52.95;96122.97;6268902;28;20049;-70
2023/08/22 02:44:07;;;;;;;4.50;2.15;;;;;;;19.00;52.76;96111.00;6268896;28;20389;-70
2023/08/22 02:47:13;;;;;;;6.22;1.88;;;;;;;19.24;52.29;96129.56;6267652;28;20041;-70
2023/08/22 02:50:18;;;;;;;3.80;2.03;;;;;;;19.39;51.67;96126.19;6266648;28;20179;-70
2023/08/22 02:53:23;;;;;;;9.93;6.35;;;;;;;19.50;51.43;96123.13;6268551;28;20105;-70
2023/08/22 02:56:29;;;;;;;5.10;2.90;;;;;;;19.56;51.47;96117.13;6268805;28;20415;-69
2023/08/22 02:59:34;;;;;;;6.18;2.08;;;;;;;19.62;51.47;96113.75;6268568;28;20071;-70
2023/08/22 03:02:37;;;;;;;5.28;2.50;;;;;;;19.85;50.98;96126.34;6268637;28;20496;-70
2023/08/22 03:05:42;;;;;;;4.13;2.40;;;;;;;19.92;50.45;96119.28;6268481;28;20049;-70
2023/08/22 03:08:51;;;;;;;5.25;2.60;;;;;;;20.02;50.38;96111.06;6268137;28;20045;-71
2023/08/22 03:11:56;;;;;;;5.25;2.38;;;;;;;20.16;49.75;96129.00;6268515;28;20610;-70
2023/08/22 03:14:57;;;;;;;4.72;2.33;;;;;;;20.04;49.93;96133.91;6268460;28;20535;-70
2023/08/22 03:18:00;;;;;;;5.22;2.50;;;;;;;20.17;49.75;96128.81;6267144;28;20040;-71
2023/08/22 03:21:04;;;;;;;4.43;2.17;;;;;;;20.40;49.29;96128.81;6270596;28;20049;-70
2023/08/22 03:24:11;;;;;;;7.82;3.58;;;;;;;20.59;48.72;96138.22;6273131;28;20041;-70
2023/08/22 03:27:16;;;;;;;5.13;2.10;;;;;;;20.67;48.35;96131.16;6273039;28;20057;-70
2023/08/22 03:30:20;;;;;;;6.70;3.35;;;;;;;20.71;48.31;96129.75;6272630;28;20114;-70
2023/08/22 03:33:26;;;;;;;5.32;2.80;;;;;;;20.85;47.69;96139.66;6273057;28;20491;-70
2023/08/22 03:36:31;;;;;;;10.50;3.85;;;;;;;21.14;47.46;96132.69;6271892;28;20107;-70
2023/08/22 03:39:41;;;;;;;7.22;2.80;;;;;;;21.27;46.76;96132.88;6272543;28;20179;-70
2023/08/22 03:42:47;;;;;;;6.88;3.25;;;;;;;21.36;46.58;96136.28;6272815;28;20086;-70
2023/08/22 03:45:53;;;;;;;9.13;2.75;;;;;;;21.51;46.23;96140.66;6272702;28;20049;-70
2023/08/22 03:48:57;;;;;;;12.05;2.58;;;;;;;21.53;46.05;96149.31;6285782;28;20052;-70
2023/08/22 03:52:00;;;;;;;9.20;3.03;;;;;;;21.40;46.23;96130.44;6296710;28;20048;-70
2023/08/22 03:55:02;;;;;;;;;;;;;;;21.40;46.47;96122.41;6296854;28;20053;-70
2023/08/22 03:58:04;;;;;;;9.63;4.33;;;;;;;21.51;46.36;96123.75;6296383;28;19920;-70
2023/08/22 04:01:06;;;;;;;9.57;3.20;;;;;;;21.70;45.68;96135.75;6278481;28;20526;-70
2023/08/22 04:04:14;;;;;;;9.05;3.65;;;;;;;21.91;45.33;96135.81;6296029;28;20049;-70
2023/08/22 04:07:21;;;;;;;10.95;4.78;;;;;;;22.20;44.81;96142.13;6296939;28;20060;-71
2023/08/22 04:10:28;;;;;;;15.13;4.80;;;;;;;22.40;44.43;96139.66;6296796;28;20512;-71
2023/08/22 04:13:32;;;;;;;12.57;4.60;;;;;;;22.30;44.25;96129.22;6278380;28;20189;-70
2023/08/22 04:16:34;;;;;;;16.00;4.32;;;;;;;22.29;44.44;96140.97;6296913;28;20071;-70
2023/08/22 04:19:38;;;;;;;14.55;4.47;;;;;;;22.21;44.35;96146.47;6295783;28;20195;-71
2023/08/22 04:22:42;;;;;;;14.07;4.47;;;;;;;22.17;44.24;96150.53;6295696;28;20435;-71
2023/08/22 04:25:46;;;;;;;14.15;3.78;;;;;;;21.92;45.07;96148.16;6296640;28;20044;-70
2023/08/22 04:28:52;;;;;;;13.32;3.58;;;;;;;21.87;45.19;96147.06;6296278;28;20050;-71
2023/08/22 04:31:58;;;;;;;11.10;4.10;;;;;;;21.84;45.53;96140.25;6277762;28;20048;-70
2023/08/22 04:34:59;;;;;;;9.20;4.03;;;;;;;21.80;45.53;96122.91;6294694;28;20059;-70
2023/08/22 04:38:06;;;;;;;12.45;3.90;;;;;;;21.59;45.98;96114.81;6278721;28;20045;-71
2023/08/22 04:41:12;;;;;;;11.00;4.28;;;;;;;21.50;46.60;96112.22;6296233;28;20056;-70
2023/08/22 04:44:14;;;;;;;10.07;3.83;;;;;;;21.79;46.09;96121.22;6295420;28;20059;-70
2023/08/22 04:47:20;;;;;;;10.00;4.07;;;;;;;22.53;44.59;96122.84;6296153;28;20048;-70
2023/08/22 04:50:21;;;;;;;7.45;3.88;;;;;;;23.09;43.45;96106.81;6295991;28;20072;-70
2023/08/22 04:53:24;;;;;;;8.95;4.18;;;;;;;23.03;43.33;96099.56;6295862;28;20040;-70
2023/08/22 04:56:28;;;;;;;7.82;3.70;;;;;;;23.07;43.38;96116.91;6296006;28;20052;-70
2023/08/22 04:59:36;;;;;;;7.25;3.47;;;;;;;23.23;43.16;96103.19;6295274;28;20415;-70
2023/08/22 05:02:38;;;;;;;9.35;3.70;;;;;;;23.52;42.73;96112.00;6294676;28;20106;-70
2023/08/22 05:05:42;;;;;;;11.68;3.45;;;;;;;24.03;41.97;96103.56;6294681;28;20045;-70
2023/08/22 05:08:47;;;;;;;9.48;4.45;;;;;;;24.94;40.37;96095.00;6294732;28;20057;-70
2023/08/22 05:11:53;;;;;;;7.85;3.38;;;;;;;26.41;37.71;96116.88;6294900;28;20044;-70
2023/08/22 05:14:59;;;;;;;7.07;3.42;;;;;;;28.07;35.05;96120.75;6294772;28;20049;-70
2023/08/22 05:18:02;;;;;;;14.05;4.05;;;;;;;28.31;34.64;96134.38;6295330;28;20044;-70
2023/08/22 05:21:08;;;;;;;11.88;4.22;;;;;;;27.83;35.08;96143.31;6295076;28;20138;-70
2023/08/22 05:24:12;;;;;;;9.35;3.67;;;;;;;27.28;36.12;96134.09;6260844;28;20135;-71
2023/08/22 05:27:17;;;;;;;15.98;4.38;;;;;;;27.16;36.21;96130.50;6295011;28;20045;-72
2023/08/22 05:30:24;;;;;;;11.63;4.82;;;;;;;28.17;34.82;96126.47;6294717;28;20040;-70
2023/08/22 05:33:25;;;;;;;18.13;5.40;;;;;;;30.63;31.39;96142.97;6260536;28;20156;-70
2023/08/22 05:36:29;;;;;;;18.45;4.50;;;;;;;31.79;29.44;96145.13;6294798;28;20049;-70
2023/08/22 05:39:33;;;;;;;26.90;10.32;;;;;;;34.38;26.42;96135.91;6294784;28;20503;-72
2023/08/22 05:42:38;;;;;;;23.60;7.50;;;;;;;37.98;22.37;96143.31;6294095;28;20045;-70
2023/08/22 05:45:42;;;;;;;28.08;6.13;;;;;;;40.94;19.39;96131.91;6294820;28;20039;-71
2023/08/22 05:48:49;;;;;;;29.10;7.68;;;;;;;43.73;16.91;96133.53;6294610;28;20063;-70
2023/08/22 05:52:02;;;;;;;34.00;7.05;;;;;;;44.91;15.72;96129.97;6294725;28;20044;-70
2023/08/22 05:55:08;;;;;;;35.88;7.05;;;;;;;42.45;17.88;96128.50;6294702;28;20052;-70
2023/08/22 05:58:15;;;;;;;33.13;6.00;;;;;;;39.56;19.94;96123.72;6294471;28;20418;-71
2023/08/22 06:01:21;;;;;;;30.05;6.20;;;;;;;37.17;22.20;96117.44;6294336;28;20075;-71
2023/08/22 06:04:30;;;;;;;33.53;7.03;;;;;;;35.36;23.96;96118.56;6294579;28;20127;-70
2023/08/22 06:07:37;;;;;;;42.95;8.50;;;;;;;34.26;25.17;96108.84;6294374;28;20040;-70
2023/08/22 06:10:46;;;;;;;41.20;8.65;;;;;;;32.48;27.21;96086.66;6294374;28;20514;-70
2023/08/22 06:13:56;;;;;;;42.42;7.97;;;;;;;31.49;28.93;96081.09;6294112;28;20045;-70
2023/08/22 06:16:58;;;;;;;32.63;7.00;;;;;;;30.60;29.68;96083.72;6294163;28;20068;-70
2023/08/22 06:20:00;;;;;;;28.52;5.90;;;;;;;29.88;30.98;96087.81;6293342;28;20529;-70
2023/08/22 06:23:06;;;;;;;27.15;7.57;;;;;;;29.26;31.60;96084.81;6294254;28;20045;-70
2023/08/22 06:26:15;;;;;;;34.78;6.28;;;;;;;29.59;31.67;96091.50;6294336;28;20044;-70
2023/08/22 06:29:22;;;;;;;26.65;6.00;;;;;;;29.67;31.47;96086.56;6294021;28;20040;-72
2023/08/22 06:32:25;;;;;;;23.92;5.60;;;;;;;29.36;31.72;96079.63;6294122;28;20063;-70
2023/08/22 06:35:30;;;;;;;22.90;6.57;;;;;;;28.54;33.25;96072.28;6293854;28;20423;-69
2023/08/22 06:38:34;;;;;;;19.17;6.07;;;;;;;27.76;34.53;96073.91;6294154;28;20040;-70
2023/08/22 06:41:40;;;;;;;23.90;5.80;;;;;;;27.35;35.44;96079.22;6293228;28;20059;-70
2023/08/22 06:44:44;;;;;;;20.50;6.93;;;;;;;28.15;34.26;96069.06;6293756;28;20086;-71
2023/08/22 06:47:45;;;;;;;19.92;4.65;;;;;;;30.08;31.57;96075.72;6292823;28;20052;-72
2023/08/22 06:50:49;;;;;;;12.43;3.45;;;;;;;30.34;30.85;96075.13;6294093;28;20044;-72
2023/08/22 06:53:57;;;;;;;12.05;3.22;;;;;;;30.12;31.13;96079.56;6294477;28;20043;-71
2023/08/22 06:57:08;;;;;;;11.32;3.28;;;;;;;30.37;30.98;96084.69;6298893;28;20499;-72
2023/08/22 07:00:16;;;;;;;6.88;3.03;;;;;;;30.50;30.84;96078.13;6297667;28;20064;-72
2023/08/22 07:03:21;;;;;;;6.30;3.17;;;;;;;30.75;30.22;96075.84;6298572;28;20131;-70
2023/08/22 07:06:23;;;;;;;7.57;2.85;;;;;;;30.58;30.32;96075.84;6298288;28;20540;-70
2023/08/22 07:09:27;;;;;;;8.68;2.70;;;;;;;30.49;30.22;96062.91;6298841;28;20499;-70
2023/08/22 07:12:31;;;;;;;6.45;2.53;;;;;;;30.75;30.13;96064.97;6298282;28;20505;-70
2023/08/22 07:15:40;;;;;;;4.07;2.78;;;;;;;31.01;30.00;96062.69;6298053;28;20041;-72
2023/08/22 07:18:45;;;;;;;3.25;2.22;;;;;;;31.00;30.05;96066.50;6298476;28;20047;-71
2023/08/22 07:21:47;;;;;;;3.15;2.10;;;;;;;30.90;30.33;96050.84;6309799;28;20052;-72
2023/08/22 07:24:51;;;;;;;6.63;3.65;;;;;;;30.80;30.03;96061.53;6321465;28;20035;-70
2023/08/22 07:27:52;;;;;;;5.55;2.53;;;;;;;30.35;31.29;96052.38;6322209;28;20039;-71
2023/08/22 07:31:00;;;;;;;5.07;4.00;;;;;;;29.79;31.79;96045.88;6304952;28;20087;-72
2023/08/22 07:34:06;;;;;;;8.60;4.30;;;;;;;29.30;32.91;96037.25;6322787;28;20446;-72
2023/08/22 07:37:14;;;;;;;6.15;3.13;;;;;;;29.03;33.19;96048.56;6322837;28;20403;-71
2023/08/22 07:40:18;;;;;;;5.82;3.40;;;;;;;28.78;33.73;96045.22;6322732;28;20047;-72
2023/08/22 07:43:26;;;;;;;5.45;3.47;;;;;;;28.91;33.53;96039.59;6321627;28;20048;-71
2023/08/22 07:46:27;;;;;;;5.35;2.92;;;;;;;29.11;33.08;96049.28;6322879;28;20286;-71
2023/08/22 07:49:29;;;;;;;5.47;2.92;;;;;;;28.30;34.44;96057.00;6322048;28;20056;-70
2023/08/22 07:52:33;;;;;;;4.10;2.70;;;;;;;27.62;35.33;96045.41;6304576;28;20127;-70
2023/08/22 07:55:39;;;;;;;4.70;2.88;;;;;;;27.39;36.64;96050.69;6322439;28;20142;-70
2023/08/22 07:58:43;;;;;;;6.07;3.72;;;;;;;27.15;36.84;96053.19;6322133;28;20078;-70
2023/08/22 08:01:49;;;;;;;5.03;2.95;;;;;;;26.98;36.97;96052.94;6321998;28;20047;-71
2023/08/22 08:04:52;;;;;;;3.60;2.80;;;;;;;26.62;37.44;96048.28;6321960;28;20044;-71
2023/08/22 08:07:54;;;;;;;6.78;2.85;;;;;;;26.37;38.34;96049.06;6321192;28;20490;-70
2023/08/22 08:10:55;;;;;;;4.45;2.95;;;;;;;26.37;38.36;96051.78;6320854;28;20040;-70
2023/08/22 08:13:59;;;;;;;9.95;6.60;;;;;;;26.60;38.29;96039.59;6322004;28;20040;-71
2023/08/22 08:17:03;;;;;;;7.18;4.47;;;;;;;26.63;38.03;96039.13;6321932;28;20035;-70
2023/08/22 08:20:11;;;;;;;6.20;3.35;;;;;;;26.86;37.80;96050.16;6321202;28;20510;-70
2023/08/22 08:23:15;;;;;;;4.05;2.92;;;;;;;26.97;37.82;96039.66;6321905;28;20351;-70
2023/08/22 08:26:20;;;;;;;5.95;3.00;;;;;;;26.78;38.19;96047.75;6321705;28;20491;-70
2023/08/22 08:29:21;;;;;;;7.47;3.83;;;;;;;26.43;38.71;96040.09;6321595;28;20040;-70
2023/08/22 08:32:30;;;;;;;4.13;2.95;;;;;;;26.17;39.29;96051.09;6321678;28;20036;-70
2023/08/22 08:35:34;;;;;;;3.92;3.05;;;;;;;25.92;39.55;96043.75;6321557;28;20040;-70
2023/08/22 08:38:37;;;;;;;6.18;3.65;;;;;;;25.81;39.86;96033.63;6321366;28;20494;-71
2023/08/22 08:41:48;;;;;;;4.63;3.50;;;;;;;25.86;39.92;96036.53;6321129;28;20063;-70
2023/08/22 08:44:52;;;;;;;4.40;3.00;;;;;;;25.68;40.32;96036.41;6321176;28;20449;-70
2023/08/22 08:47:56;;;;;;;5.45;2.88;;;;;;;25.48;40.73;96033.81;6320123;28;20403;-70
2023/08/22 08:51:04;;;;;;;3.22;2.33;;;;;;;25.18;40.66;95999.31;6302883;28;20043;-70
2023/08/22 08:54:06;;;;;;;5.00;3.05;;;;;;;25.30;41.10;96034.47;6321037;28;20551;-70
2023/08/22 08:57:12;;;;;;;4.88;2.90;;;;;;;25.07;41.14;96035.75;6303081;28;20423;-70
2023/08/22 09:00:16;;;;;;;4.10;2.85;;;;;;;24.68;42.09;96035.81;6320998;28;20036;-70
2023/08/22 09:03:18;;;;;;;4.45;2.65;;;;;;;24.21;43.30;96017.00;6319637;28;20140;-70
2023/08/22 09:06:26;;;;;;;4.65;2.78;;;;;;;24.11;43.46;96030.00;6320775;28;20044;-69
2023/08/22 09:09:34;;;;;;;4.00;2.70;;;;;;;23.84;44.55;96031.81;6320085;28;20048;-71
2023/08/22 09:12:39;;;;;;;3.67;2.50;;;;;;;23.58;44.79;96035.19;6320937;28;20047;-70
2023/08/22 09:15:47;;;;;;;6.90;3.95;;;;;;;23.44;45.96;96029.81;6320375;28;20040;-70
2023/08/22 09:18:57;;;;;;;6.20;3.22;;;;;;;23.12;48.58;96031.28;6319324;28;20521;-72
2023/08/22 09:22:03;;;;;;;8.98;4.57;;;;;;;22.40;51.53;96033.25;6301844;28;20644;-72
2023/08/22 09:25:07;;;;;;;6.28;4.18;;;;;;;21.59;55.55;96023.78;6319615;28;20064;-72
2023/08/22 09:28:12;;;;;;;6.55;4.57;;;;;;;20.80;58.72;96027.06;6319892;28;20048;-70
2023/08/22 09:31:24;;;;;;;8.57;4.47;;;;;;;20.66;59.93;96017.19;6320212;28;20494;-70
2023/08/22 09:34:26;;;;;;;8.50;5.50;;;;;;;21.01;59.62;96019.16;6302162;28;20110;-71
2023/08/22 09:37:41;;;;;;;12.00;6.85;;;;;;;22.88;62.59;96013.81;6320012;28;20044;-70
2023/08/22 09:40:51;;;;;;;8.75;5.32;;;;;;;24.86;55.24;96018.00;6318464;28;20055;-71
2023/08/22 09:44:00;;;;;;;8.00;4.80;;;;;;;25.33;53.32;96017.91;6319845;28;20043;-72
2023/08/22 09:47:08;;;;;;;8.20;4.90;;;;;;;25.09;52.62;96022.91;6319799;28;20043;-71
2023/08/22 09:50:13;;;;;;;7.47;4.90;;;;;;;24.78;52.70;96020.91;6318394;28;20048;-71
2023/08/22 09:53:20;;;;;;;6.28;4.70;;;;;;;24.51;53.35;96017.41;6319369;28;20040;-71
2023/08/22 09:56:25;;;;;;;4.05;3.65;;;;;;;24.27;53.01;96012.66;6319645;28;20521;-72
2023/08/22 09:59:29;;;;;;;4.47;3.67;;;;;;;24.18;52.46;96020.09;6319494;28;20491;-71
2023/08/22 10:02:35;;;;;;;3.63;3.30;;;;;;;24.26;51.12;96016.34;6318414;28;20052;-72
2023/08/22 10:05:44;;;;;;;6.13;3.88;;;;;;;24.44;51.76;96018.47;6319621;28;20526;-70
2023/08/22 10:08:46;;;;;;;4.80;3.88;;;;;;;24.48;51.30;96025.91;6319554;28;20109;-70
2023/08/22 10:11:56;;;;;;;4.90;3.50;;;;;;;24.38;52.39;96009.34;6318996;28;20040;-71
2023/08/22 10:15:03;;;;;;;7.90;4.20;;;;;;;24.37;51.74;96021.09;6317948;28;20052;-71
2023/08/22 10:18:07;;;;;;;5.05;4.25;;;;;;;24.44;51.80;96008.53;6319239;28;20503;-72
2023/08/22 10:21:13;;;;;;;6.32;4.68;;;;;;;24.82;52.11;95995.22;6317846;28;20051;-72
2023/08/22 10:24:26;;;;;;;6.47;4.25;;;;;;;25.48;51.00;95999.63;6319180;28;20081;-71
2023/08/22 10:27:29;;;;;;;5.15;3.75;;;;;;;26.20;49.27;96002.13;6319144;28;20040;-71
2023/08/22 10:30:33;;;;;;;5.18;3.83;;;;;;;26.54;47.32;95995.44;6317716;28;20052;-72
2023/08/22 10:33:37;;;;;;;4.25;3.42;;;;;;;26.66;46.91;95990.13;6319031;28;20036;-72
2023/08/22 10:37:20;;;;;;;4.63;3.30;;;;;;;27.12;46.66;95994.25;6318641;28;20051;-72
2023/08/22 10:40:27;;;;;;;3.95;3.38;;;;;;;27.40;46.57;95991.00;6306297;28;20461;-70
2023/08/22 10:43:38;;;;;;;7.57;4.05;;;;;;;28.29;44.51;95993.13;6318625;28;20059;-71
2023/08/22 10:47:03;;;;;;;4.97;2.80;;;;;;;31.43;38.50;95994.28;6317611;28;20048;-73
2023/08/22 10:50:10;;;;;;;4.90;3.08;;;;;;;34.79;32.04;96005.66;6318157;28;20056;-71
2023/08/22 10:53:18;;;;;;;5.20;2.42;;;;;;;37.14;28.46;96008.31;6318716;28;20081;-71
2023/08/22 10:56:24;;;;;;;5.63;3.70;;;;;;;37.28;27.82;96001.88;6317408;28;20051;-71
2023/08/22 10:59:27;;;;;;;6.85;4.40;;;;;;;36.28;29.24;96000.50;6318080;28;20064;-71
2023/08/22 11:02:33;;;;;;;14.00;3.20;;;;;;;35.97;29.34;95999.84;6317707;28;20060;-70
2023/08/22 11:05:38;;;;;;;3.58;2.58;;;;;;;35.65;29.03;96006.59;6318868;28;20044;-72
2023/08/22 11:08:46;;;;;;;2.83;2.50;;;;;;;35.82;28.59;95997.22;6318479;28;20043;-71
2023/08/22 11:11:50;;;;;;;2.63;2.42;;;;;;;36.37;28.02;95989.75;6318406;28;20052;-72
2023/08/22 11:15:00;;;;;;;2.30;2.10;;;;;;;36.70;26.91;95996.38;6293722;28;20575;-72
2023/08/22 11:18:07;;;;;;;5.90;3.30;;;;;;;36.63;26.12;95983.00;6292330;28;20419;-72
2023/08/22 11:21:10;;;;;;;5.28;3.15;;;;;;;35.44;27.89;95961.22;6292121;28;20056;-72
2023/08/22 11:24:13;;;;;;;2.75;2.42;;;;;;;34.60;29.12;95975.34;6292957;28;20037;-71
2023/08/22 11:27:20;;;;;;;4.05;3.03;;;;;;;32.88;31.69;95960.84;6292261;28;20508;-71
2023/08/22 11:30:27;;;;;;;2.40;2.20;;;;;;;31.60;33.22;95946.09;6293001;28;20048;-72
2023/08/22 11:33:49;;;;;;;2.78;2.22;;;;;;;30.80;34.91;95953.75;6291325;28;20049;-71
2023/08/22 11:36:53;;;;;;;2.93;2.60;;;;;;;30.79;34.74;95946.66;6291961;28;20139;-71
2023/08/22 11:39:59;;;;;;;6.57;2.30;;;;;;;31.64;33.61;95935.50;6292703;28;20495;-71
2023/08/22 11:43:02;;;;;;;3.60;2.78;;;;;;;32.62;31.74;95940.78;6295440;28;20068;-72
2023/08/22 11:46:09;;;;;;;3.08;2.25;;;;;;;33.48;30.74;95937.69;6296696;28;20113;-71
2023/08/22 11:49:13;;;;;;;3.90;3.03;;;;;;;34.28;29.69;95934.63;6295987;28;20049;-71
2023/08/22 11:52:27;;;;;;;2.90;2.53;;;;;;;33.04;30.60;95940.81;6297285;28;20067;-71
2023/08/22 11:55:32;;;;;;;2.75;2.47;;;;;;;31.50;32.75;95922.31;6296486;28;20427;-71
2023/08/22 11:58:42;;;;;;;2.60;2.40;;;;;;;30.34;34.88;95919.63;6296381;28;20503;-71
2023/08/22 12:01:48;;;;;;;3.28;2.95;;;;;;;29.69;36.08;95907.38;6297029;28;20040;-70
2023/08/22 12:04:55;;;;;;;3.25;2.88;;;;;;;29.37;36.39;95905.13;6296614;28;20095;-70
2023/08/22 12:08:15;;;;;;;5.97;3.83;;;;;;;29.24;36.27;95897.28;6296246;28;20314;-70
2023/08/22 12:11:23;;;;;;;;;;;;;;;29.62;35.80;95903.97;6297219;28;20180;-70
2023/08/22 12:14:24;;;;;;;6.18;3.10;;;;;;;29.23;36.44;95890.22;6296919;28;19974;-72
2023/08/22 12:17:28;;;;;;;4.18;3.22;;;;;;;28.86;37.52;95896.78;6295662;28;20045;-70
2023/08/22 12:20:38;;;;;;;3.60;3.28;;;;;;;28.53;38.26;95902.81;6296724;28;20036;-72
2023/08/22 12:23:44;;;;;;;4.03;3.08;;;;;;;28.23;38.77;95900.22;6296394;28;20056;-72
2023/08/22 12:26:53;;;;;;;3.70;3.08;;;;;;;28.39;38.75;95896.81;6295518;28;20063;-72
2023/08/22 12:29:58;;;;;;;2.83;2.60;;;;;;;28.97;37.40;95897.81;6296314;28;20074;-72
2023/08/22 12:33:03;;;;;;;4.05;3.28;;;;;;;28.93;37.44;95891.25;6277871;28;20422;-71
2023/08/22 12:36:07;;;;;;;3.58;2.70;;;;;;;28.49;38.07;95893.53;6296328;28;20045;-70
2023/08/22 12:39:12;;;;;;;3.40;3.10;;;;;;;27.95;39.06;95900.88;6295370;28;20064;-72
2023/08/22 12:42:19;;;;;;;4.25;3.60;;;;;;;27.71;39.17;95890.00;6295173;28;20061;-71
2023/08/22 12:45:26;;;;;;;5.20;3.75;;;;;;;27.35;40.18;95890.13;6278502;28;20040;-73
2023/08/22 12:48:27;;;;;;;6.43;3.65;;;;;;;27.04;40.61;95887.38;6269057;28;20053;-70
2023/08/22 12:51:30;;;;;;;8.35;4.07;;;;;;;26.60;41.29;95880.41;6269688;28;20048;-71
2023/08/22 12:54:37;;;;;;;5.13;3.70;;;;;;;26.15;42.25;95886.00;6253795;28;20519;-71
2023/08/22 12:57:46;;;;;;;8.57;5.72;;;;;;;25.82;43.33;95872.78;6271182;28;20515;-70
2023/08/22 13:00:52;;;;;;;10.60;6.03;;;;;;;25.65;43.63;95881.41;6271012;28;20045;-71
2023/08/22 13:03:59;;;;;;;4.30;3.90;;;;;;;25.50;44.01;95873.63;6270800;28;20052;-70
2023/08/22 13:07:05;;;;;;;5.43;3.25;;;;;;;25.22;44.60;95875.88;6270359;28;20123;-71
2023/08/22 13:10:09;;;;;;;4.70;3.30;;;;;;;25.01;45.27;95880.50;6270613;28;20041;-70
2023/08/22 13:13:16;;;;;;;5.55;3.55;;;;;;;24.77;45.62;95873.16;6270505;28;20127;-72
2023/08/22 13:16:19;;;;;;;8.80;7.15;;;;;;;24.94;45.62;95868.97;6270297;28;20053;-73
2023/08/22 13:19:21;;;;;;;8.93;4.97;;;;;;;25.16;45.21;95861.41;6269546;28;20045;-72
2023/08/22 13:22:29;;;;;;;3.65;3.33;;;;;;;25.32;44.78;95857.38;6268558;28;20051;-71
2023/08/22 13:25:38;;;;;;;6.07;3.80;;;;;;;25.28;44.70;95843.53;6269934;28;20090;-70
2023/08/22 13:28:39;;;;;;;5.38;3.35;;;;;;;25.04;44.61;95846.97;6269446;28;20136;-73
2023/08/22 13:31:46;;;;;;;4.32;2.90;;;;;;;24.80;45.30;95838.59;6270024;28;20048;-70
2023/08/22 13:34:53;;;;;;;3.83;2.92;;;;;;;24.67;45.31;95837.81;6270084;28;20055;-71
2023/08/22 13:37:54;;;;;;;3.50;3.17;;;;;;;24.44;46.00;95844.50;6269439;28;20404;-71
2023/08/22 13:41:00;;;;;;;6.60;3.33;;;;;;;24.15;45.79;95846.63;6269809;28;20041;-72
2023/08/22 13:44:04;;;;;;;6.43;3.35;;;;;;;23.80;46.72;95845.19;6269515;28;20139;-72
2023/08/22 13:47:13;;;;;;;4.47;3.15;;;;;;;23.46;47.56;95847.00;6268382;28;20045;-71
2023/08/22 13:50:17;;;;;;;5.70;3.15;;;;;;;23.05;48.42;95858.72;6292745;28;20484;-71
2023/08/22 13:53:20;;;;;;;4.80;2.70;;;;;;;22.70;49.02;95853.38;6293525;28;20056;-71
2023/08/22 13:56:24;;;;;;;4.60;2.85;;;;;;;22.41;49.45;95868.72;6294320;28;20040;-73
2023/08/22 13:59:29;;;;;;;4.40;2.40;;;;;;;22.13;50.06;95865.22;6293472;28;20053;-70
2023/08/22 14:02:32;;;;;;;3.85;2.55;;;;;;;21.98;50.65;95871.53;6276242;28;20056;-70
2023/08/22 14:05:36;;;;;;;4.90;2.83;;;;;;;21.76;51.35;95869.91;6293442;28;20116;-72
2023/08/22 14:08:40;;;;;;;7.57;3.35;;;;;;;21.64;51.82;95876.81;6293793;28;20040;-72
2023/08/22 14:11:47;;;;;;;8.82;3.28;;;;;;;21.56;51.72;95880.44;6293185;28;20051;-72
2023/08/22 14:14:51;;;;;;;5.53;3.55;;;;;;;21.59;51.12;95874.69;6292915;28;20048;-72
2023/08/22 14:17:57;;;;;;;2.67;2.20;;;;;;;21.62;50.62;95873.50;6293721;28;20427;-71
2023/08/22 14:20:58;;;;;;;4.65;2.28;;;;;;;21.63;50.33;95864.47;6293047;28;20075;-71
2023/08/22 14:24:02;;;;;;;3.85;2.40;;;;;;;21.50;50.34;95863.31;6292887;28;20056;-71
2023/08/22 14:27:08;;;;;;;3.42;2.25;;;;;;;21.42;50.44;95862.59;6293765;28;20419;-70
2023/08/22 14:30:12;;;;;;;5.22;2.75;;;;;;;21.13;51.16;95858.19;6292540;28;20105;-70
2023/08/22 14:33:18;;;;;;;2.35;1.85;;;;;;;20.92;51.25;95857.16;6293453;28;20069;-71